Time;durP1;ratioP1;P1;durP2;ratioP2;P2;SDS_P1;SDS_P2;PMS_P1;PMS_P2;Temp;Humidity;BMP_temperature;BMP_pressure;BME280_temperature;BME280_humidity;BME280_pressure;Samples;Min_cycle;Max_cycle;Signal;HPM_P1;HPM_P2
2022/11/06 00:01:12;;;;;;;11.13;9.20;;;9.30;94.50;;;;;;5054065;28;20650;-75
2022/11/06 00:03:38;;;;;;;15.70;10.60;;;9.30;92.40;;;;;;5053097;28;20186;-82
2022/11/06 00:08:58;;;;;;;11.60;9.80;;;9.40;96.60;;;;;;5053900;28;20478;-72
2022/11/06 00:11:24;;;;;;;13.30;9.70;;;9.40;95.70;;;;;;5053023;28;20436;-75
2022/11/06 00:13:51;;;;;;;14.47;10.20;;;9.40;92.60;;;;;;5052915;28;20545;-72
2022/11/06 00:16:17;;;;;;;11.63;10.43;;;9.40;92.90;;;;;;5052868;28;20210;-72
2022/11/06 00:18:43;;;;;;;13.80;11.47;;;9.30;94.80;;;;;;5053189;28;20404;-75
2022/11/06 00:21:16;;;;;;;16.77;9.67;;;9.40;98.70;;;;;;5053083;28;20439;-72
2022/11/06 00:23:43;;;;;;;10.67;8.93;;;9.40;95.30;;;;;;5052340;28;20762;-73
2022/11/06 00:26:12;;;;;;;12.60;8.90;;;9.40;93.30;;;;;;5053784;28;20426;-72
2022/11/06 00:28:37;;;;;;;17.67;11.20;;;9.40;95.20;;;;;;5053723;28;20427;-76
2022/11/06 00:31:05;;;;;;;11.80;10.20;;;9.40;93.80;;;;;;5053657;28;20413;-73
2022/11/06 00:33:31;;;;;;;18.27;10.73;;;9.50;98.10;;;;;;5052148;28;20547;-73
2022/11/06 00:36:02;;;;;;;14.80;10.67;;;9.40;95.30;;;;;;5050903;28;20452;-72
2022/11/06 00:38:27;;;;;;;15.17;9.37;;;9.40;92.20;;;;;;5052800;28;20643;-72
2022/11/06 00:40:53;;;;;;;12.53;9.40;;;9.40;92.20;;;;;;5053368;28;20416;-75
2022/11/06 00:43:19;;;;;;;13.10;9.63;;;9.50;92.40;;;;;;5053338;28;20205;-77
2022/11/06 00:45:44;;;;;;;15.77;9.63;;;9.50;96.60;;;;;;5051671;28;20571;-75
2022/11/06 00:48:10;;;;;;;12.13;9.27;;;9.40;98.50;;;;;;5053458;28;20174;-73
2022/11/06 00:50:36;;;;;;;15.07;9.07;;;9.40;98.30;;;;;;5053419;28;20172;-75
2022/11/06 00:53:02;;;;;;;11.87;9.67;;;9.50;97.10;;;;;;5052743;28;20529;-76
2022/11/06 00:55:28;;;;;;;10.80;9.70;;;9.40;98.80;;;;;;5051362;28;20468;-72
2022/11/06 00:57:53;;;;;;;9.37;8.47;;;9.50;96.50;;;;;;5053305;28;20209;-75
2022/11/06 01:00:19;;;;;;;14.33;8.97;;;9.50;96.80;;;;;;5053208;28;20696;-74
2022/11/06 01:02:46;;;;;;;20.63;10.47;;;9.50;98.10;;;;;;5053257;28;20186;-71
2022/11/06 01:05:12;;;;;;;12.70;10.10;;;9.50;98.00;;;;;;5051172;28;20201;-76
2022/11/06 01:07:38;;;;;;;11.10;9.00;;;9.50;98.80;;;;;;5053283;28;20409;-72
2022/11/06 01:10:05;;;;;;;11.97;8.40;;;9.50;92.50;;;;;;5051503;28;20380;-76
2022/11/06 01:12:32;;;;;;;13.50;8.53;;;9.40;92.20;;;;;;5056876;28;20401;-74
2022/11/06 01:14:58;;;;;;;10.20;8.00;;;9.50;99.90;;;;;;5054040;28;20436;-73
2022/11/06 01:17:24;;;;;;;10.50;8.57;;;9.40;99.90;;;;;;5056264;28;20480;-76
2022/11/06 01:19:49;;;;;;;13.80;8.40;;;9.40;99.90;;;;;;5057236;28;20249;-72
2022/11/06 01:22:15;;;;;;;13.40;8.63;;;9.30;99.90;;;;;;5057170;28;20179;-75
2022/11/06 01:24:41;;;;;;;13.90;8.60;;;9.30;99.90;;;;;;5053938;28;20192;-76
2022/11/06 01:27:08;;;;;;;13.67;10.00;;;9.30;99.90;;;;;;5056878;28;20421;-74
2022/11/06 01:29:34;;;;;;;11.27;8.50;;;9.30;99.90;;;;;;5056491;28;20489;-73
2022/11/06 01:31:59;;;;;;;20.20;7.67;;;9.20;99.90;;;;;;5055041;28;20434;-75
2022/11/06 01:34:25;;;;;;;8.70;7.00;;;9.20;99.90;;;;;;5055263;28;20477;-73
2022/11/06 01:36:51;;;;;;;10.00;7.93;;;9.20;99.90;;;;;;5056717;28;20656;-76
2022/11/06 01:39:17;;;;;;;11.97;6.97;;;9.20;99.90;;;;;;5055830;28;20192;-75
2022/11/06 01:41:45;;;;;;;10.53;8.73;;;9.20;99.90;;;;;;5056774;28;20406;-74
2022/11/06 01:44:42;;;;;;;9.93;7.00;;;9.20;99.90;;;;;;5053885;28;20432;-74
2022/11/06 01:47:24;;;;;;;9.40;7.67;;;9.20;99.90;;;;;;5056186;28;20421;-76
2022/11/06 01:49:54;;;;;;;9.17;6.77;;;9.20;99.90;;;;;;5056609;28;20501;-76
2022/11/06 01:52:21;;;;;;;7.60;6.83;;;9.20;99.90;;;;;;5055487;28;20439;-74
2022/11/06 01:54:50;;;;;;;8.57;7.20;;;9.30;99.90;;;;;;5070195;28;20917;-76
2022/11/06 01:57:16;;;;;;;19.53;7.37;;;9.30;99.90;;;;;;5056415;28;20429;-76
2022/11/06 01:59:44;;;;;;;14.20;6.90;;;9.30;99.90;;;;;;5055476;28;20486;-75
2022/11/06 02:02:11;;;;;;;7.83;6.70;;;9.30;99.90;;;;;;5056376;28;20526;-75
2022/11/06 02:04:41;;;;;;;7.73;6.30;;;9.30;99.90;;;;;;5053095;28;20470;-76
2022/11/06 02:07:08;;;;;;;8.70;7.57;;;9.30;99.90;;;;;;5054880;28;20987;-75
2022/11/06 02:09:34;;;;;;;7.17;6.47;;;9.20;99.90;;;;;;5054000;28;20441;-74
2022/11/06 02:12:38;;;;;;;8.03;6.20;;;9.20;99.90;;;;;;5054918;28;20461;-73
2022/11/06 02:15:18;;;;;;;7.27;6.67;;;9.10;99.90;;;;;;5052704;28;20422;-72
2022/11/06 02:18:38;;;;;;;6.47;5.87;;;9.10;99.90;;;;;;5054626;28;20903;-73
2022/11/06 02:21:03;;;;;;;10.77;6.77;;;9.20;99.90;;;;;;4991922;28;20466;-76
2022/11/06 02:23:35;;;;;;;6.20;5.60;;;9.20;99.90;;;;;;5041241;28;20439;-74
2022/11/06 02:26:23;;;;;;;7.30;6.60;;;9.20;99.90;;;;;;5052748;28;20197;-73
2022/11/06 02:29:05;;;;;;;6.33;5.73;;;9.30;99.90;;;;;;5053986;28;20772;-72
2022/11/06 02:31:34;;;;;;;11.63;6.00;;;9.30;99.90;;;;;;5034696;28;20407;-76
2022/11/06 02:34:08;;;;;;;7.30;5.90;;;9.30;99.90;;;;;;5033627;28;20772;-76
2022/11/06 02:36:50;;;;;;;5.63;5.07;;;9.30;99.90;;;;;;5034719;28;20451;-71
2022/11/06 02:39:19;;;;;;;12.83;6.37;;;9.30;99.90;;;;;;5035395;28;20409;-74
2022/11/06 02:41:46;;;;;;;6.37;5.30;;;9.30;99.90;;;;;;5054468;28;20482;-73
2022/11/06 02:44:17;;;;;;;6.00;5.30;;;9.30;99.90;;;;;;5053618;28;20399;-75
2022/11/06 02:46:57;;;;;;;11.03;7.80;;;9.40;99.90;;;;;;5053699;28;20453;-72
2022/11/06 02:49:35;;;;;;;6.27;5.67;;;9.40;97.70;;;;;;5052284;28;20398;-73
2022/11/06 02:52:10;;;;;;;8.60;5.10;;;9.40;98.80;;;;;;5069737;28;20876;-72
2022/11/06 02:54:42;;;;;;;5.50;5.00;;;9.40;99.90;;;;;;5052355;28;20463;-72
2022/11/06 02:57:13;;;;;;;5.57;4.83;;;9.40;99.90;;;;;;5053768;28;20851;-76
2022/11/06 03:00:01;;;;;;;6.60;5.60;;;9.40;99.90;;;;;;5053342;28;20951;-74
2022/11/06 03:02:34;;;;;;;5.87;5.13;;;9.50;99.30;;;;;;5054313;28;20400;-72
2022/11/06 03:05:38;;;;;;;5.33;4.93;;;9.40;98.50;;;;;;5000899;28;1518514;-72
2022/11/06 03:08:22;;;;;;;8.60;5.40;;;9.50;99.40;;;;;;5045579;28;20555;-75
2022/11/06 03:11:17;;;;;;;5.10;4.70;;;9.50;95.30;;;;;;5053606;28;20847;-73
2022/11/06 03:14:11;;;;;;;6.10;5.50;;;9.50;99.90;;;;;;5053481;28;20445;-72
2022/11/06 03:16:46;;;;;;;6.30;5.70;;;9.50;99.90;;;;;;5054945;28;20423;-72
2022/11/06 03:19:28;;;;;;;5.57;5.07;;;9.50;99.90;;;;;;5054041;28;20403;-76
2022/11/06 03:22:07;;;;;;;5.60;5.00;;;9.60;99.90;;;;;;5049265;28;20452;-73
2022/11/06 03:24:49;;;;;;;5.20;4.70;;;9.50;99.90;;;;;;5052749;28;20455;-75
2022/11/06 03:27:24;;;;;;;6.10;5.60;;;9.50;99.00;;;;;;5054804;28;20426;-72
2022/11/06 03:30:01;;;;;;;8.17;5.70;;;9.50;96.40;;;;;;5053376;28;20465;-74
2022/11/06 03:32:29;;;;;;;6.50;4.70;;;9.50;99.90;;;;;;5054629;28;20404;-77
2022/11/06 03:35:13;;;;;;;7.73;6.07;;;9.50;99.90;;;;;;5052021;28;20451;-73
2022/11/06 03:37:45;;;;;;;5.33;4.80;;;9.40;99.90;;;;;;5054748;28;20422;-73
2022/11/06 03:40:15;;;;;;;6.03;5.43;;;9.30;99.90;;;;;;5053471;28;20428;-76
2022/11/06 03:42:43;;;;;;;5.90;5.03;;;9.30;99.90;;;;;;5054546;28;20379;-78
2022/11/06 03:45:15;;;;;;;5.40;5.00;;;9.30;99.90;;;;;;5053487;28;20896;-78
2022/11/06 03:47:50;;;;;;;6.50;5.57;;;9.20;99.90;;;;;;5051676;28;20428;-73
2022/11/06 03:50:35;;;;;;;11.20;6.27;;;9.20;99.90;;;;;;5053389;28;20841;-78
2022/11/06 03:53:52;;;;;;;6.43;5.83;;;9.10;99.90;;;;;;5054228;28;20461;-73
2022/11/06 03:56:41;;;;;;;7.50;5.90;;;9.00;99.90;;;;;;4992695;28;20426;-73
2022/11/06 03:59:09;;;;;;;7.17;6.57;;;9.00;99.90;;;;;;4991503;28;20527;-73
2022/11/06 04:01:41;;;;;;;7.20;5.90;;;9.00;99.90;;;;;;5037334;28;20781;-79
2022/11/06 04:04:28;;;;;;;6.23;5.33;;;9.00;99.90;;;;;;5052736;28;20524;-72
2022/11/06 04:07:14;;;;;;;5.80;5.20;;;9.00;99.90;;;;;;5054020;28;20794;-73
2022/11/06 04:15:18;;;;;;;6.50;5.80;;;9.00;99.90;;;;;;5052062;28;20399;-81
2022/11/06 04:17:44;;;;;;;5.80;5.20;;;8.90;99.90;;;;;;5053926;28;20440;-82
2022/11/06 04:21:20;;;;;;;11.00;6.17;;;8.90;99.90;;;;;;5052835;28;20464;-84
2022/11/06 04:23:27;;;;;;;9.60;5.67;;;8.90;99.90;;;;;;5053164;28;20184;-73
2022/11/06 04:26:36;;;;;;;6.10;5.30;;;8.80;99.90;;;;;;5052971;28;20435;-73
2022/11/06 04:30:09;;;;;;;6.27;5.67;;;8.80;99.90;;;;;;5052790;28;20914;-73
2022/11/06 04:32:52;;;;;;;6.60;6.00;;;8.90;99.90;;;;;;4981870;28;20425;-85
2022/11/06 04:35:36;;;;;;;5.03;4.63;;;8.80;99.90;;;;;;5052540;28;20406;-70
2022/11/06 04:38:05;;;;;;;6.70;5.97;;;8.80;99.90;;;;;;5051531;28;20441;-81
2022/11/06 04:40:42;;;;;;;7.87;6.73;;;8.70;99.90;;;;;;5052519;28;20457;-72
2022/11/06 04:43:19;;;;;;;7.87;5.67;;;8.70;99.90;;;;;;5052665;28;20420;-73
2022/11/06 04:45:53;;;;;;;8.53;7.33;;;8.70;99.90;;;;;;5052531;28;20424;-80
2022/11/06 04:48:20;;;;;;;7.23;6.53;;;8.70;99.90;;;;;;5053486;28;20402;-80
2022/11/06 04:50:50;;;;;;;9.23;6.00;;;8.80;99.90;;;;;;5051657;28;20403;-79
2022/11/06 04:53:18;;;;;;;9.90;6.87;;;8.80;99.90;;;;;;5053362;28;20448;-80
2022/11/06 04:55:53;;;;;;;7.90;6.67;;;8.70;99.90;;;;;;5052377;28;20417;-71
2022/11/06 04:58:19;;;;;;;9.90;6.90;;;8.70;99.90;;;;;;5051973;28;20390;-71
2022/11/06 05:00:46;;;;;;;7.13;6.30;;;8.70;99.90;;;;;;5052111;28;20435;-80
2022/11/06 05:03:13;;;;;;;8.00;7.20;;;8.70;99.90;;;;;;5053097;28;20694;-71
2022/11/06 05:05:39;;;;;;;9.50;6.63;;;8.70;99.90;;;;;;5052232;28;20513;-72
2022/11/06 05:08:05;;;;;;;10.90;6.67;;;8.70;99.90;;;;;;5053197;28;20509;-79
2022/11/06 05:10:30;;;;;;;7.47;6.77;;;8.70;99.90;;;;;;5052154;28;20564;-71
2022/11/06 05:12:56;;;;;;;7.27;6.57;;;8.70;99.90;;;;;;5053033;28;20198;-71
2022/11/06 05:15:22;;;;;;;7.50;6.70;;;8.70;1.00;;;;;;5051773;28;20164;-72
2022/11/06 05:17:47;;;;;;;11.73;7.67;;;8.70;1.00;;;;;;5053213;28;20178;-72
2022/11/06 05:20:13;;;;;;;11.20;7.77;;;8.70;1.00;;;;;;5050904;28;20224;-71
2022/11/06 05:22:57;;;;;;;7.70;6.73;;;8.70;1.00;;;;;;5053064;28;20257;-79
2022/11/06 05:25:23;;;;;;;7.70;7.00;;;8.70;1.00;;;;;;5052032;28;20228;-73
2022/11/06 05:27:49;;;;;;;9.53;7.87;;;8.70;1.00;;;;;;5052954;28;20394;-70
2022/11/06 05:30:16;;;;;;;13.60;7.37;;;8.70;1.00;;;;;;5052252;28;20487;-71
2022/11/06 05:32:42;;;;;;;8.43;7.20;;;8.60;1.00;;;;;;5052403;28;20393;-71
2022/11/06 05:35:08;;;;;;;12.10;7.40;;;8.70;1.00;;;;;;5050583;28;20797;-78
2022/11/06 05:37:33;;;;;;;11.00;7.30;;;8.70;1.00;;;;;;5051084;28;20662;-79
2022/11/06 05:39:59;;;;;;;9.77;8.37;;;8.60;1.00;;;;;;5052034;28;20182;-79
2022/11/06 05:42:24;;;;;;;8.60;7.27;;;8.70;1.00;;;;;;5052971;28;20253;-70
2022/11/06 05:44:50;;;;;;;9.33;8.00;;;8.70;1.00;;;;;;5051052;28;20183;-78
2022/11/06 05:47:16;;;;;;;10.97;6.63;;;8.60;1.00;;;;;;5052616;28;20221;-80
2022/11/06 05:49:41;;;;;;;8.60;7.57;;;8.60;1.00;;;;;;5067340;28;20184;-78
2022/11/06 05:52:07;;;;;;;9.50;7.00;;;8.70;1.00;;;;;;5052394;28;20181;-72
2022/11/06 05:54:33;;;;;;;8.80;7.97;;;8.70;1.00;;;;;;5067272;28;20203;-79
2022/11/06 05:56:58;;;;;;;12.87;7.50;;;8.60;1.00;;;;;;5053846;28;20238;-71
2022/11/06 05:59:24;;;;;;;9.87;8.17;;;8.70;1.00;;;;;;5071060;28;20175;-71
2022/11/06 06:01:50;;;;;;;10.43;7.63;;;8.70;1.00;;;;;;5056510;28;20611;-71
2022/11/06 06:04:15;;;;;;;7.27;6.60;;;8.70;1.00;;;;;;5053153;28;20223;-78
2022/11/06 06:06:41;;;;;;;8.53;7.47;;;8.70;1.00;;;;;;5054253;28;20204;-77
2022/11/06 06:09:07;;;;;;;9.50;8.43;;;8.70;1.00;;;;;;5054915;28;20184;-71
2022/11/06 06:11:33;;;;;;;7.87;7.10;;;8.70;1.00;;;;;;5056068;28;20176;-78
2022/11/06 06:13:59;;;;;;;8.87;7.97;;;8.60;1.00;;;;;;5053895;28;20426;-71
2022/11/06 06:16:25;;;;;;;9.80;7.13;;;8.70;1.00;;;;;;5056088;28;20464;-78
2022/11/06 06:18:51;;;;;;;11.07;8.40;;;8.70;5.10;;;;;;5054503;28;20931;-77
2022/11/06 06:21:16;;;;;;;9.93;7.17;;;8.70;15.10;;;;;;5055189;28;20168;-73
2022/11/06 06:23:42;;;;;;;9.10;7.67;;;8.70;23.00;;;;;;5054010;28;20208;-80
2022/11/06 06:26:08;;;;;;;10.30;7.40;;;8.70;30.00;;;;;;5055795;28;20195;-78
2022/11/06 06:28:34;;;;;;;7.93;7.13;;;8.70;28.60;;;;;;5054623;28;20421;-76
2022/11/06 06:31:04;;;;;;;9.00;7.70;;;8.70;31.70;;;;;;5055771;28;20380;-70
2022/11/06 06:33:30;;;;;;;11.00;7.87;;;8.70;32.60;;;;;;5054449;28;20191;-78
2022/11/06 06:35:56;;;;;;;12.23;6.50;;;8.70;46.10;;;;;;5054934;28;20438;-71
2022/11/06 06:38:22;;;;;;;8.17;7.33;;;8.70;40.60;;;;;;5054965;28;20174;-70
2022/11/06 06:40:47;;;;;;;10.10;7.33;;;8.80;66.70;;;;;;5055673;28;20414;-82
2022/11/06 06:43:13;;;;;;;10.50;8.47;;;8.80;62.30;;;;;;5055370;28;20671;-71
2022/11/06 06:45:39;;;;;;;8.43;7.47;;;8.80;76.50;;;;;;5054234;28;20199;-77
2022/11/06 06:48:05;;;;;;;10.33;7.80;;;8.70;64.50;;;;;;5070719;28;20168;-70
2022/11/06 06:50:31;;;;;;;20.73;8.00;;;8.80;80.10;;;;;;5052300;28;20171;-70
2022/11/06 06:52:58;;;;;;;13.63;7.70;;;8.80;78.90;;;;;;5054651;28;20957;-78
2022/11/06 06:55:24;;;;;;;7.00;6.30;;;8.70;80.20;;;;;;5053167;28;20405;-77
2022/11/06 06:57:57;;;;;;;8.77;7.87;;;8.80;80.30;;;;;;5054201;28;20418;-70
2022/11/06 07:00:23;;;;;;;11.33;8.10;;;8.70;80.10;;;;;;5051008;28;20420;-77
2022/11/06 07:02:49;;;;;;;7.73;7.03;;;8.80;80.30;;;;;;5054918;28;20463;-77
2022/11/06 07:05:15;;;;;;;12.93;8.40;;;8.80;81.90;;;;;;5058064;28;20222;-68
2022/11/06 07:07:40;;;;;;;14.00;8.80;;;8.80;91.70;;;;;;5053222;28;20397;-69
2022/11/06 07:10:06;;;;;;;8.87;7.17;;;8.70;93.10;;;;;;5053409;28;20175;-68
2022/11/06 07:12:32;;;;;;;7.80;7.00;;;8.80;94.50;;;;;;5055079;28;20173;-68
2022/11/06 07:14:57;;;;;;;9.77;8.60;;;8.80;99.90;;;;;;5054265;28;20392;-68
2022/11/06 07:17:23;;;;;;;9.90;7.23;;;8.90;99.90;;;;;;5052792;28;20572;-68
2022/11/06 07:19:49;;;;;;;7.40;6.63;;;8.90;99.90;;;;;;5053498;28;20174;-76
2022/11/06 07:22:15;;;;;;;8.20;7.00;;;8.90;99.90;;;;;;5055040;28;20698;-70
2022/11/06 07:24:40;;;;;;;10.20;7.70;;;8.90;99.90;;;;;;5052876;28;20184;-79
2022/11/06 07:27:09;;;;;;;6.33;5.73;;;8.90;99.90;;;;;;5053795;28;20457;-77
2022/11/06 07:29:35;;;;;;;9.43;7.03;;;8.90;99.90;;;;;;5054939;28;20232;-78
2022/11/06 07:32:01;;;;;;;6.60;5.90;;;8.90;99.90;;;;;;5053451;28;20452;-70
2022/11/06 07:34:26;;;;;;;8.27;7.23;;;8.90;99.90;;;;;;5053819;28;20197;-77
2022/11/06 07:36:52;;;;;;;8.70;6.57;;;8.90;99.90;;;;;;5051706;28;20203;-78
2022/11/06 07:39:20;;;;;;;7.20;6.50;;;8.90;99.90;;;;;;5053212;28;20180;-69
2022/11/06 07:41:46;;;;;;;8.13;6.90;;;8.90;99.90;;;;;;5054601;28;20172;-76
2022/11/06 07:44:12;;;;;;;8.27;7.47;;;8.90;99.90;;;;;;5053527;28;20438;-78
2022/11/06 07:46:37;;;;;;;7.73;6.93;;;8.90;99.90;;;;;;5053431;28;20198;-70
2022/11/06 07:49:03;;;;;;;7.37;6.67;;;8.90;99.90;;;;;;5054309;28;20232;-78
2022/11/06 07:51:29;;;;;;;7.60;6.80;;;8.90;99.90;;;;;;5054178;28;20574;-69
2022/11/06 07:53:54;;;;;;;9.47;6.47;;;9.00;99.90;;;;;;5052069;28;20706;-77
2022/11/06 07:56:20;;;;;;;12.57;7.20;;;9.00;99.90;;;;;;5052655;28;20193;-77
2022/11/06 07:58:46;;;;;;;8.10;7.27;;;9.00;99.90;;;;;;5054162;28;20166;-70
2022/11/06 08:01:16;;;;;;;8.30;6.87;;;9.00;99.90;;;;;;5054131;28;20619;-78
2022/11/06 08:03:42;;;;;;;11.23;6.40;;;9.00;99.90;;;;;;5053042;28;20185;-77
2022/11/06 08:06:08;;;;;;;7.43;6.73;;;8.90;99.90;;;;;;5052907;28;20502;-70
2022/11/06 08:08:33;;;;;;;8.20;6.67;;;8.90;99.90;;;;;;5052705;28;20417;-79
2022/11/06 08:11:07;;;;;;;8.63;7.10;;;9.00;99.90;;;;;;5055506;28;20505;-69
2022/11/06 08:13:34;;;;;;;7.37;6.67;;;9.00;99.90;;;;;;5042513;28;20197;-77
2022/11/06 08:16:10;;;;;;;8.00;7.20;;;9.00;99.90;;;;;;5050269;28;20454;-77
2022/11/06 08:18:36;;;;;;;8.30;6.70;;;9.00;99.90;;;;;;5054176;28;20468;-70
2022/11/06 08:21:03;;;;;;;10.53;7.53;;;9.00;99.90;;;;;;5053378;28;20423;-70
2022/11/06 08:23:29;;;;;;;6.40;5.80;;;9.00;99.90;;;;;;5052125;28;20952;-70
2022/11/06 08:25:57;;;;;;;11.23;6.50;;;9.00;99.90;;;;;;5067608;28;20431;-79
2022/11/06 08:28:25;;;;;;;6.60;6.00;;;9.00;99.90;;;;;;5059176;28;20740;-80
2022/11/06 08:30:52;;;;;;;7.03;6.07;;;9.10;99.90;;;;;;5038535;28;20403;-70
2022/11/06 08:33:19;;;;;;;7.00;6.30;;;9.10;99.90;;;;;;5049205;28;20447;-70
2022/11/06 08:35:45;;;;;;;7.73;6.93;;;9.00;99.90;;;;;;5032929;28;20970;-69
2022/11/06 08:38:10;;;;;;;7.93;6.60;;;9.10;99.90;;;;;;5033518;28;20486;-77
2022/11/06 08:40:37;;;;;;;7.50;6.07;;;9.10;99.90;;;;;;5046086;28;20169;-70
2022/11/06 08:43:06;;;;;;;8.73;6.60;;;9.10;99.90;;;;;;5073574;28;20291;-70
2022/11/06 08:45:35;;;;;;;8.60;7.17;;;9.10;99.90;;;;;;5072849;28;20729;-70
2022/11/06 08:48:02;;;;;;;8.57;7.77;;;9.10;99.90;;;;;;5052894;28;20422;-78
2022/11/06 08:50:28;;;;;;;7.43;6.70;;;9.10;99.90;;;;;;5053117;28;20436;-71
2022/11/06 08:53:03;;;;;;;7.83;7.13;;;9.10;99.90;;;;;;5051895;28;20412;-77
2022/11/06 08:55:36;;;;;;;8.73;7.33;;;9.10;99.90;;;;;;5051031;28;20437;-78
2022/11/06 08:58:04;;;;;;;9.97;8.30;;;9.10;99.90;;;;;;5053336;28;20888;-70
2022/11/06 09:00:30;;;;;;;14.43;8.43;;;9.20;99.90;;;;;;5053098;28;20410;-78
2022/11/06 09:03:00;;;;;;;7.93;7.13;;;9.20;99.90;;;;;;5051733;28;20544;-77
2022/11/06 09:05:27;;;;;;;10.63;7.40;;;9.20;99.90;;;;;;5032310;28;20406;-77
2022/11/06 09:07:52;;;;;;;8.83;6.63;;;9.20;99.90;;;;;;5033910;28;20401;-78
2022/11/06 09:10:18;;;;;;;9.50;6.87;;;9.30;99.90;;;;;;5053179;28;20465;-71
2022/11/06 09:12:44;;;;;;;8.53;7.57;;;9.30;99.90;;;;;;5053882;28;20182;-70
2022/11/06 09:15:10;;;;;;;8.57;6.60;;;9.30;99.90;;;;;;5054487;28;20432;-70
2022/11/06 09:17:43;;;;;;;10.90;8.00;;;9.20;99.90;;;;;;5052512;28;20199;-78
2022/11/06 09:20:10;;;;;;;8.90;6.93;;;9.30;99.90;;;;;;5066092;28;20186;-79
2022/11/06 09:22:35;;;;;;;19.20;7.77;;;9.30;99.90;;;;;;5051688;28;20423;-71
2022/11/06 09:25:01;;;;;;;10.43;8.00;;;9.30;99.90;;;;;;5038433;28;20942;-76
2022/11/06 09:27:27;;;;;;;7.93;7.20;;;9.30;99.90;;;;;;5056520;28;20691;-69
2022/11/06 09:29:53;;;;;;;13.50;9.10;;;9.40;99.90;;;;;;5042403;28;20705;-77
2022/11/06 09:32:19;;;;;;;13.80;8.10;;;9.40;99.90;;;;;;5069732;28;20424;-70
2022/11/06 09:34:44;;;;;;;12.10;7.30;;;9.40;99.90;;;;;;5049151;28;20540;-71
2022/11/06 09:37:10;;;;;;;9.00;8.10;;;9.50;99.90;;;;;;5054597;28;20265;-78
2022/11/06 09:39:36;;;;;;;10.27;7.60;;;9.50;99.90;;;;;;5056792;28;20243;-70
2022/11/06 09:42:29;;;;;;;7.50;6.77;;;9.50;99.90;;;;;;5056516;28;20251;-70
2022/11/06 09:45:15;;;;;;;9.63;7.93;;;9.50;99.90;;;;;;5054511;28;20444;-74
2022/11/06 09:47:47;;;;;;;8.30;7.50;;;9.50;99.90;;;;;;5056014;28;20996;-69
2022/11/06 09:50:20;;;;;;;8.87;7.77;;;9.50;99.90;;;;;;5051646;28;20432;-70
2022/11/06 09:52:50;;;;;;;8.10;6.57;;;9.40;99.90;;;;;;5042827;28;20462;-76
2022/11/06 09:55:37;;;;;;;8.80;6.73;;;9.50;99.90;;;;;;5052605;28;20435;-77
2022/11/06 09:58:15;;;;;;;20.03;8.30;;;9.50;99.90;;;;;;5055930;28;20510;-70
2022/11/06 10:00:41;;;;;;;6.73;6.23;;;9.50;99.90;;;;;;5055779;28;20513;-72
2022/11/06 10:03:39;;;;;;;9.33;7.53;;;9.50;99.90;;;;;;5043854;28;20444;-71
2022/11/06 10:06:05;;;;;;;9.33;7.47;;;9.50;99.90;;;;;;5069576;28;20487;-71
2022/11/06 10:08:31;;;;;;;11.07;7.20;;;9.50;99.90;;;;;;5070844;28;20883;-76
2022/11/06 10:11:05;;;;;;;12.47;8.47;;;9.50;99.90;;;;;;5071535;28;20177;-75
2022/11/06 10:13:49;;;;;;;8.20;6.50;;;9.50;99.90;;;;;;5042511;28;20199;-71
2022/11/06 10:16:47;;;;;;;7.90;7.10;;;9.50;99.90;;;;;;5070812;28;20448;-70
2022/11/06 10:19:31;;;;;;;13.67;7.10;;;9.60;99.90;;;;;;5056580;28;20427;-70
2022/11/06 10:22:15;;;;;;;8.07;6.33;;;9.60;99.90;;;;;;5054414;28;20435;-77
2022/11/06 10:25:07;;;;;;;7.67;6.97;;;9.70;99.90;;;;;;5053060;28;20437;-76
2022/11/06 10:27:40;;;;;;;9.30;6.53;;;9.80;99.90;;;;;;5042542;28;20426;-71
2022/11/06 10:30:15;;;;;;;11.43;6.97;;;9.80;99.90;;;;;;5051883;28;20390;-72
2022/11/06 10:33:09;;;;;;;8.10;6.20;;;9.80;99.90;;;;;;5054450;28;20424;-71
2022/11/06 10:35:48;;;;;;;9.33;6.70;;;9.80;97.90;;;;;;5048209;28;20472;-76
2022/11/06 10:38:17;;;;;;;9.77;5.37;;;9.80;99.90;;;;;;5054964;28;20429;-71
2022/11/06 10:40:47;;;;;;;6.00;5.40;;;9.80;99.90;;;;;;5067513;28;21234;-76
2022/11/06 10:43:28;;;;;;;7.43;6.50;;;9.90;93.70;;;;;;5050571;28;20899;-74
2022/11/06 10:46:27;;;;;;;7.43;5.70;;;10.00;85.60;;;;;;5045411;28;20436;-71
2022/11/06 10:48:58;;;;;;;5.90;5.33;;;10.10;96.60;;;;;;5057174;28;20411;-73
2022/11/06 10:51:49;;;;;;;8.47;6.20;;;10.20;84.50;;;;;;5038564;28;20390;-80
2022/11/06 10:54:17;;;;;;;7.20;5.50;;;10.30;80.40;;;;;;5037083;28;20461;-74
2022/11/06 10:57:06;;;;;;;5.63;5.13;;;10.50;80.70;;;;;;5055864;28;20467;-80
2022/11/06 10:59:32;;;;;;;10.00;6.33;;;10.60;33.90;;;;;;5040164;28;20399;-74
2022/11/06 11:01:58;;;;;;;6.37;5.77;;;10.60;17.40;;;;;;5046083;28;20467;-75
2022/11/06 11:04:24;;;;;;;5.83;5.23;;;10.70;20.50;;;;;;5043673;28;20828;-78
2022/11/06 11:06:49;;;;;;;5.90;5.20;;;10.90;1.00;;;;;;5042793;28;20199;-78
2022/11/06 11:09:30;;;;;;;9.27;6.90;;;10.80;1.00;;;;;;5040581;28;20187;-76
2022/11/06 11:12:00;;;;;;;5.50;4.67;;;10.90;1.00;;;;;;5055302;28;20202;-71
2022/11/06 11:14:30;;;;;;;5.40;4.90;;;10.90;1.00;;;;;;5045903;28;20432;-74
2022/11/06 11:17:00;;;;;;;6.83;5.00;;;10.90;1.00;;;;;;5054909;28;20467;-78
2022/11/06 11:19:36;;;;;;;5.13;4.70;;;10.80;1.00;;;;;;5042187;28;20395;-73
2022/11/06 11:22:18;;;;;;;4.93;4.50;;;10.80;1.00;;;;;;5042775;28;20417;-77
2022/11/06 11:25:04;;;;;;;6.43;5.27;;;10.70;1.00;;;;;;5046587;28;20872;-74
2022/11/06 11:27:50;;;;;;;12.20;4.87;;;10.70;1.00;;;;;;5039831;28;20420;-72
2022/11/06 11:30:22;;;;;;;4.80;4.40;;;10.70;1.00;;;;;;5040822;28;20400;-71
2022/11/06 11:32:48;;;;;;;4.50;4.10;;;10.70;1.00;;;;;;5058686;28;20412;-76
2022/11/06 11:35:18;;;;;;;7.63;4.90;;;10.70;1.00;;;;;;5044409;28;20440;-77
2022/11/06 11:37:44;;;;;;;6.43;4.10;;;10.70;1.00;;;;;;5055255;28;20484;-72
2022/11/06 11:40:35;;;;;;;5.60;5.00;;;10.70;1.00;;;;;;5045186;28;20393;-72
2022/11/06 11:43:19;;;;;;;4.30;3.90;;;10.70;1.00;;;;;;5041544;28;20439;-77
2022/11/06 11:46:06;;;;;;;5.77;4.47;;;10.80;1.00;;;;;;5052184;28;20420;-77
2022/11/06 11:48:47;;;;;;;8.00;4.50;;;10.80;1.00;;;;;;5041613;28;20486;-77
2022/11/06 11:51:39;;;;;;;6.93;3.90;;;10.90;1.00;;;;;;5040214;28;20430;-76
2022/11/06 11:54:08;;;;;;;4.17;3.87;;;11.00;1.00;;;;;;5053429;28;20467;-77
2022/11/06 11:56:53;;;;;;;8.60;4.90;;;11.00;1.00;;;;;;5054845;28;20520;-77
2022/11/06 11:59:23;;;;;;;7.90;4.43;;;11.00;1.00;;;;;;5038982;28;20408;-77
2022/11/06 12:01:49;;;;;;;9.90;4.60;;;11.00;1.00;;;;;;5049619;28;20479;-76
2022/11/06 12:04:26;;;;;;;4.80;4.43;;;11.10;1.00;;;;;;5043461;28;20433;-76
2022/11/06 12:07:01;;;;;;;10.67;4.77;;;11.10;1.00;;;;;;5040750;28;20191;-77
2022/11/06 12:09:30;;;;;;;4.60;4.20;;;11.10;1.00;;;;;;5055028;28;20434;-79
2022/11/06 12:11:59;;;;;;;7.57;4.13;;;11.30;1.00;;;;;;5042520;28;20765;-76
2022/11/06 12:14:31;;;;;;;7.73;3.93;;;11.30;1.00;;;;;;5042775;28;20459;-76
2022/11/06 12:17:12;;;;;;;4.70;4.30;;;11.40;1.00;;;;;;5044164;28;20876;-72
2022/11/06 12:19:43;;;;;;;4.00;3.60;;;11.50;1.00;;;;;;5050075;28;20449;-72
2022/11/06 12:22:36;;;;;;;5.30;3.73;;;11.60;1.00;;;;;;5049118;28;20507;-73
2022/11/06 12:25:26;;;;;;;3.80;3.30;;;11.70;1.00;;;;;;5039098;28;20795;-76
2022/11/06 12:27:58;;;;;;;7.60;3.50;;;11.90;1.00;;;;;;5048557;28;20433;-73
2022/11/06 12:30:25;;;;;;;4.13;3.20;;;12.00;1.00;;;;;;5040951;28;20429;-73
2022/11/06 12:33:17;;;;;;;3.50;3.20;;;12.10;1.00;;;;;;5038800;28;20453;-72
2022/11/06 12:35:48;;;;;;;3.60;3.27;;;12.10;1.00;;;;;;5042795;28;20429;-76
2022/11/06 12:38:26;;;;;;;4.20;2.90;;;12.10;99.90;;;;;;5041180;28;20854;-75
2022/11/06 12:41:20;;;;;;;7.73;3.27;;;12.20;99.90;;;;;;5045297;28;20503;-76
2022/11/06 12:43:49;;;;;;;4.10;3.10;;;12.10;99.90;;;;;;5039285;28;20412;-75
2022/11/06 12:46:23;;;;;;;6.27;3.30;;;12.10;99.90;;;;;;5039977;28;20514;-75
2022/11/06 12:49:23;;;;;;;3.17;2.90;;;12.20;99.90;;;;;;5033089;28;20396;-76
2022/11/06 12:52:21;;;;;;;2.70;2.50;;;12.20;99.90;;;;;;5049632;28;20413;-77
2022/11/06 12:54:55;;;;;;;3.27;2.57;;;12.20;99.90;;;;;;5039223;28;20440;-78
2022/11/06 12:57:44;;;;;;;3.17;2.97;;;12.20;99.90;;;;;;5033716;28;20451;-77
2022/11/06 13:00:18;;;;;;;5.90;3.20;;;12.30;99.90;;;;;;5036274;28;20444;-77
2022/11/06 13:03:06;;;;;;;5.93;3.23;;;12.20;99.90;;;;;;5043778;28;20490;-80
2022/11/06 13:05:50;;;;;;;5.60;2.37;;;12.30;99.90;;;;;;5041246;28;20436;-72
2022/11/06 13:08:37;;;;;;;5.27;3.37;;;12.30;99.90;;;;;;5045109;28;20490;-78
2022/11/06 13:11:09;;;;;;;2.47;2.27;;;12.40;99.90;;;;;;5037661;28;20436;-76
2022/11/06 13:14:00;;;;;;;5.00;3.90;;;12.50;99.90;;;;;;5070999;28;20449;-77
2022/11/06 13:16:59;;;;;;;3.40;3.10;;;12.50;99.90;;;;;;5046390;28;20458;-76
2022/11/06 13:19:52;;;;;;;5.23;3.43;;;12.40;99.90;;;;;;5044113;28;20436;-73
2022/11/06 13:22:35;;;;;;;4.80;3.10;;;12.40;99.90;;;;;;5046734;28;21268;-74
2022/11/06 13:25:13;;;;;;;5.77;2.87;;;12.40;99.90;;;;;;5053484;28;20407;-76
2022/11/06 13:28:05;;;;;;;3.00;2.70;;;12.40;99.90;;;;;;5062730;28;20418;-76
2022/11/06 13:30:32;;;;;;;5.97;2.90;;;12.50;99.90;;;;;;5052765;28;20920;-77